Time;durP1;ratioP1;P1;durP2;ratioP2;P2;SDS_P1;SDS_P2;PMS_P1;PMS_P2;Temp;Humidity;BMP_temperature;BMP_pressure;BME280_temperature;BME280_humidity;BME280_pressure;Samples;Min_cycle;Max_cycle;Signal;HPM_P1;HPM_P2
2021/12/29 00:00:26;;;;;;;6.45;6.05;;;9.20;99.90;;;;;;4993140;28;20856;-87
2021/12/29 00:03:00;;;;;;;10.30;9.55;;;9.00;99.90;;;;;;4986934;28;20193;-86
2021/12/29 00:05:27;;;;;;;7.60;7.10;;;8.40;99.90;;;;;;4990816;28;20275;-87
2021/12/29 00:07:52;;;;;;;10.65;9.88;;;9.10;99.90;;;;;;4990204;28;20193;-87
2021/12/29 00:10:19;;;;;;;10.80;9.97;;;9.00;99.90;;;;;;4999580;28;20197;-86
2021/12/29 00:12:49;;;;;;;9.87;8.97;;;9.00;99.90;;;;;;4953063;28;20217;-86
2021/12/29 00:15:24;;;;;;;8.65;7.97;;;9.00;99.90;;;;;;4972818;28;20468;-87
2021/12/29 00:17:54;;;;;;;12.80;10.40;;;9.20;99.90;;;;;;4989695;28;20775;-86
2021/12/29 00:20:31;;;;;;;11.02;10.00;;;9.10;99.90;;;;;;4980009;28;20247;-87
2021/12/29 00:23:02;;;;;;;12.27;11.02;;;9.00;99.90;;;;;;4972494;28;20193;-87
2021/12/29 00:25:33;;;;;;;15.23;9.30;;;8.90;99.90;;;;;;4978968;28;20225;-87
2021/12/29 00:28:01;;;;;;;12.93;10.35;;;9.20;99.90;;;;;;4986749;28;20185;-87
2021/12/29 00:30:40;;;;;;;12.07;11.02;;;8.90;99.90;;;;;;4970755;28;20693;-86
2021/12/29 00:33:07;;;;;;;10.98;9.98;;;9.40;99.90;;;;;;4980697;28;20212;-86
2021/12/29 00:35:37;;;;;;;13.40;10.37;;;9.10;99.90;;;;;;4954487;28;20567;-87
2021/12/29 00:38:06;;;;;;;12.30;10.98;;;9.10;99.90;;;;;;4972449;28;20420;-87
2021/12/29 00:40:36;;;;;;;12.05;10.90;;;9.30;99.90;;;;;;4979448;28;20197;-87
2021/12/29 00:43:07;;;;;;;9.75;8.75;;;9.00;99.90;;;;;;4988519;28;20197;-87
2021/12/29 00:45:38;;;;;;;12.03;11.03;;;9.80;99.90;;;;;;4969534;28;20304;-86
2021/12/29 00:48:11;;;;;;;13.45;12.20;;;9.30;99.90;;;;;;4989687;28;20428;-86
2021/12/29 00:50:38;;;;;;;13.80;12.40;;;9.10;99.90;;;;;;4960767;28;20285;-85
2021/12/29 00:53:09;;;;;;;16.23;12.63;;;9.00;99.90;;;;;;4981217;28;20185;-85
2021/12/29 00:55:36;;;;;;;17.85;14.45;;;9.30;99.90;;;;;;4987720;28;20201;-86
2021/12/29 00:58:04;;;;;;;15.60;13.90;;;9.20;99.90;;;;;;4989387;28;20181;-87
2021/12/29 01:00:32;;;;;;;10.55;9.45;;;9.10;99.90;;;;;;4969293;28;20204;-86
2021/12/29 01:02:59;;;;;;;11.52;10.25;;;9.20;99.90;;;;;;4969345;28;20186;-86
2021/12/29 01:05:25;;;;;;;11.00;9.95;;;9.10;99.90;;;;;;4987757;28;20311;-86
2021/12/29 01:07:52;;;;;;;11.90;10.70;;;9.10;99.90;;;;;;4986229;28;20200;-86
2021/12/29 01:10:19;;;;;;;11.75;10.65;;;9.10;99.90;;;;;;4968987;28;20211;-86
2021/12/29 01:12:56;;;;;;;11.83;10.70;;;9.10;99.90;;;;;;4989568;28;20231;-85
2021/12/29 01:15:28;;;;;;;13.88;11.30;;;9.10;99.90;;;;;;4981396;28;20460;-85
2021/12/29 01:17:58;;;;;;;10.52;8.85;;;9.40;99.90;;;;;;4972762;28;20228;-85
2021/12/29 01:20:25;;;;;;;11.98;6.80;;;9.00;99.90;;;;;;4971266;28;20210;-85
2021/12/29 01:22:54;;;;;;;6.45;5.85;;;9.10;99.90;;;;;;4987156;28;20206;-86
2021/12/29 01:25:21;;;;;;;8.25;7.40;;;9.30;99.90;;;;;;4970349;28;20684;-86
2021/12/29 01:27:48;;;;;;;8.13;7.43;;;9.00;99.90;;;;;;4984461;28;20178;-87
2021/12/29 01:30:17;;;;;;;6.93;6.43;;;9.30;99.90;;;;;;4985652;28;20284;-86
2021/12/29 01:32:45;;;;;;;6.00;5.70;;;9.30;99.90;;;;;;4988344;28;20673;-86
2021/12/29 01:35:15;;;;;;;6.72;6.30;;;9.00;99.90;;;;;;4977249;28;20782;-86
2021/12/29 01:37:42;;;;;;;5.55;5.15;;;9.50;99.90;;;;;;4994947;28;20190;-86
2021/12/29 01:40:13;;;;;;;6.13;5.73;;;9.20;99.90;;;;;;4997768;28;20208;-86
2021/12/29 01:42:39;;;;;;;6.50;5.82;;;9.20;99.90;;;;;;4995260;28;20236;-87
2021/12/29 01:45:13;;;;;;;2.85;2.72;;;10.50;99.90;;;;;;4994319;28;20209;-86
2021/12/29 01:47:40;;;;;;;5.55;5.25;;;9.50;99.90;;;;;;4994536;28;20185;-86
2021/12/29 01:50:11;;;;;;;6.28;5.80;;;9.40;99.90;;;;;;4986384;28;20293;-87
2021/12/29 01:52:39;;;;;;;7.30;6.70;;;9.10;99.90;;;;;;4963315;28;20637;-87
2021/12/29 01:55:10;;;;;;;6.43;6.03;;;9.30;99.90;;;;;;4982381;28;20530;-86
2021/12/29 01:57:38;;;;;;;5.15;4.93;;;9.30;99.90;;;;;;4981972;28;20244;-86
2021/12/29 02:00:09;;;;;;;6.30;5.90;;;9.50;99.90;;;;;;4986555;28;20189;-86
2021/12/29 02:02:40;;;;;;;6.22;5.82;;;8.50;99.90;;;;;;4988623;28;20209;-86
2021/12/29 02:05:09;;;;;;;5.43;5.03;;;9.00;99.90;;;;;;4979775;28;20221;-86
2021/12/29 02:07:35;;;;;;;6.75;6.22;;;9.30;99.90;;;;;;4964377;28;20231;-87
2021/12/29 02:10:03;;;;;;;7.03;6.53;;;9.30;99.90;;;;;;4979856;28;20279;-86
2021/12/29 02:12:28;;;;;;;7.40;6.70;;;9.40;99.90;;;;;;4988292;28;20185;-87
2021/12/29 02:14:54;;;;;;;7.90;7.10;;;9.50;99.90;;;;;;5068078;22;20544;-87
2021/12/29 02:17:20;;;;;;;6.65;6.05;;;9.10;99.90;;;;;;5007606;28;20215;-86
2021/12/29 02:19:58;;;;;;;7.07;6.50;;;9.20;99.90;;;;;;4998419;28;20605;-86
2021/12/29 02:22:46;;;;;;;5.30;5.07;;;10.10;99.90;;;;;;5003262;28;20180;-87
2021/12/29 02:27:44;;;;;;;6.65;6.10;;;9.10;99.90;;;;;;5012728;28;20479;-87
2021/12/29 02:30:12;;;;;;;6.95;6.47;;;9.50;99.90;;;;;;5002085;28;20602;-85
2021/12/29 02:32:39;;;;;;;5.35;4.90;;;9.40;99.90;;;;;;4974099;28;20218;-86
2021/12/29 02:35:05;;;;;;;6.30;5.90;;;9.30;99.90;;;;;;5001704;28;20337;-87
2021/12/29 02:37:31;;;;;;;6.53;6.20;;;9.20;99.90;;;;;;5015335;28;20191;-88
2021/12/29 02:39:58;;;;;;;5.73;5.43;;;9.70;99.90;;;;;;5028470;28;20176;-88
2021/12/29 02:42:28;;;;;;;5.93;5.53;;;9.10;99.90;;;;;;5006348;28;20556;-85
2021/12/29 02:44:54;;;;;;;6.55;6.05;;;8.90;99.90;;;;;;5019412;28;20986;-87
2021/12/29 02:47:32;;;;;;;6.87;6.20;;;9.20;99.90;;;;;;4983779;28;20188;-86
2021/12/29 02:49:58;;;;;;;5.68;5.28;;;9.20;99.90;;;;;;4997451;28;20457;-86
2021/12/29 02:52:25;;;;;;;5.60;5.15;;;9.30;99.90;;;;;;5007356;28;20180;-86
2021/12/29 02:54:52;;;;;;;5.03;4.78;;;9.70;99.90;;;;;;5037888;28;20215;-86
2021/12/29 02:57:19;;;;;;;5.05;4.55;;;10.40;99.90;;;;;;5017524;28;20196;-87
2021/12/29 02:59:55;;;;;;;5.30;4.90;;;9.20;99.90;;;;;;5022911;28;20188;-86
2021/12/29 03:02:22;;;;;;;4.60;4.30;;;9.30;99.90;;;;;;5015179;28;20176;-84
2021/12/29 03:04:48;;;;;;;6.15;5.68;;;9.10;99.90;;;;;;5013363;28;20216;-85
2021/12/29 03:07:14;;;;;;;5.10;4.70;;;9.30;99.90;;;;;;5019535;28;20199;-84
2021/12/29 03:09:40;;;;;;;5.40;5.10;;;9.70;99.90;;;;;;5017383;28;20442;-87
2021/12/29 03:12:12;;;;;;;4.37;4.27;;;9.30;99.90;;;;;;5008390;28;20231;-85
2021/12/29 03:14:53;;;;;;;4.28;4.07;;;9.20;99.90;;;;;;5011495;28;20538;-86
2021/12/29 03:17:19;;;;;;;4.70;4.50;;;9.20;99.90;;;;;;5014694;28;20727;-86
2021/12/29 03:19:45;;;;;;;5.75;5.38;;;9.90;99.90;;;;;;5014446;28;20468;-85
2021/12/29 03:22:12;;;;;;;5.22;4.93;;;9.40;99.90;;;;;;5017825;28;20196;-85
2021/12/29 03:24:39;;;;;;;6.90;6.40;;;9.30;99.90;;;;;;5016362;28;20323;-86
2021/12/29 03:27:05;;;;;;;7.30;6.70;;;9.20;99.90;;;;;;5023979;28;20633;-86
2021/12/29 03:29:33;;;;;;;6.77;6.17;;;9.20;99.90;;;;;;5017724;28;20945;-85
2021/12/29 03:32:06;;;;;;;6.80;6.30;;;9.70;99.90;;;;;;4987222;28;20356;-86
2021/12/29 03:34:32;;;;;;;7.25;6.65;;;9.40;99.90;;;;;;5012211;28;20342;-86
2021/12/29 03:36:58;;;;;;;8.93;8.03;;;9.30;99.90;;;;;;4990821;28;20189;-86
2021/12/29 03:39:38;;;;;;;7.47;6.57;;;9.30;99.90;;;;;;5002904;28;20192;-87
2021/12/29 03:42:08;;;;;;;9.57;7.15;;;9.20;99.90;;;;;;5002331;28;20183;-86
2021/12/29 03:44:36;;;;;;;9.38;8.60;;;9.30;99.90;;;;;;4995946;28;20228;-86
2021/12/29 03:47:02;;;;;;;8.20;7.40;;;9.10;99.90;;;;;;5015223;28;20653;-87
2021/12/29 03:49:49;;;;;;;10.23;8.98;;;9.30;99.90;;;;;;4993530;28;20201;-87
2021/12/29 03:52:15;;;;;;;11.65;9.75;;;9.30;99.90;;;;;;5025697;28;20208;-86
2021/12/29 03:54:41;;;;;;;8.20;7.50;;;9.20;99.90;;;;;;4994845;28;20192;-86
2021/12/29 03:57:14;;;;;;;10.23;9.33;;;9.20;99.90;;;;;;4987376;28;20185;-87
2021/12/29 03:59:41;;;;;;;15.25;11.35;;;9.20;99.90;;;;;;5019279;28;20192;-87
2021/12/29 04:02:06;;;;;;;12.40;10.85;;;9.20;99.90;;;;;;4996159;28;20207;-85
2021/12/29 04:04:32;;;;;;;16.23;10.67;;;9.20;99.90;;;;;;4997863;28;20306;-86
2021/12/29 04:06:59;;;;;;;11.15;10.10;;;9.40;99.90;;;;;;4996851;28;20312;-86
2021/12/29 04:09:25;;;;;;;12.10;10.13;;;9.10;99.90;;;;;;5021845;28;20204;-86
2021/12/29 04:12:00;;;;;;;14.40;11.60;;;9.30;99.90;;;;;;5036776;28;20172;-87
2021/12/29 04:14:26;;;;;;;11.20;10.10;;;8.90;99.90;;;;;;5020471;28;20228;-87
2021/12/29 04:17:08;;;;;;;12.20;10.97;;;10.00;99.90;;;;;;5040100;28;20249;-86
2021/12/29 04:20:54;;;;;;;11.80;10.65;;;9.60;99.90;;;;;;5031338;28;20180;-85
2021/12/29 04:22:30;;;;;;;13.02;10.45;;;9.20;99.90;;;;;;5036357;28;20228;-85
2021/12/29 04:24:58;;;;;;;10.90;9.50;;;9.20;99.90;;;;;;5024534;28;20208;-85
2021/12/29 04:27:25;;;;;;;10.18;8.98;;;9.30;99.90;;;;;;5010263;28;20193;-85
2021/12/29 04:29:54;;;;;;;9.23;8.43;;;9.40;99.90;;;;;;5027006;28;20250;-87
2021/12/29 04:32:22;;;;;;;10.27;9.38;;;10.50;99.90;;;;;;5022016;28;20188;-85
2021/12/29 04:34:47;;;;;;;7.28;6.57;;;9.20;99.90;;;;;;5007556;28;20420;-85
2021/12/29 04:37:13;;;;;;;8.73;7.83;;;9.60;99.90;;;;;;5004023;28;20185;-86
2021/12/29 04:39:40;;;;;;;7.60;7.00;;;9.00;99.90;;;;;;5016778;28;20679;-85
2021/12/29 04:42:06;;;;;;;6.23;5.80;;;9.10;99.90;;;;;;5010807;28;20432;-86
2021/12/29 04:44:40;;;;;;;6.23;5.67;;;9.10;99.90;;;;;;5026600;28;20468;-86
2021/12/29 04:47:08;;;;;;;8.43;7.10;;;9.20;99.90;;;;;;5022592;28;20204;-86
2021/12/29 04:49:40;;;;;;;9.38;7.18;;;9.90;99.90;;;;;;5030205;28;20467;-85
2021/12/29 04:52:08;;;;;;;8.15;7.63;;;10.00;99.90;;;;;;5012637;28;20666;-85
2021/12/29 04:54:35;;;;;;;8.53;7.77;;;9.00;99.90;;;;;;5014219;28;20196;-86
2021/12/29 04:57:01;;;;;;;9.13;8.43;;;9.10;99.90;;;;;;5013081;28;20459;-85
2021/12/29 04:59:31;;;;;;;12.40;10.23;;;9.50;99.90;;;;;;5024744;28;20212;-86
2021/12/29 05:02:00;;;;;;;10.63;9.53;;;9.70;99.90;;;;;;5007496;28;20207;-86
2021/12/29 05:04:33;;;;;;;12.40;11.20;;;10.90;99.90;;;;;;5028581;28;20467;-87
2021/12/29 05:09:48;;;;;;;9.65;8.65;;;9.20;99.90;;;;;;5038460;28;20384;-87
2021/12/29 05:12:14;;;;;;;10.00;8.70;;;9.30;99.90;;;;;;5045660;28;20376;-86
2021/12/29 05:14:40;;;;;;;7.57;6.87;;;9.30;99.90;;;;;;5013920;28;20209;-85
2021/12/29 05:17:06;;;;;;;8.17;7.37;;;9.10;99.90;;;;;;5013266;28;20236;-86
2021/12/29 05:19:34;;;;;;;7.15;6.25;;;9.20;99.90;;;;;;5029240;28;20261;-85
2021/12/29 05:22:01;;;;;;;7.07;6.57;;;9.00;99.90;;;;;;5031541;28;20276;-85
2021/12/29 05:24:29;;;;;;;5.70;5.13;;;9.20;99.90;;;;;;5030367;28;20467;-85
2021/12/29 05:26:59;;;;;;;8.37;5.67;;;9.20;99.90;;;;;;5032357;28;20400;-86
2021/12/29 05:29:31;;;;;;;5.40;5.20;;;9.40;99.90;;;;;;5027649;28;20431;-86
2021/12/29 05:31:57;;;;;;;5.00;4.50;;;9.20;99.90;;;;;;5032929;28;20412;-85
2021/12/29 05:34:26;;;;;;;4.87;4.53;;;9.10;99.90;;;;;;5016256;28;20446;-85
2021/12/29 05:36:52;;;;;;;4.22;3.90;;;8.60;99.90;;;;;;4996120;28;20411;-85
2021/12/29 05:39:30;;;;;;;5.30;4.80;;;9.10;99.90;;;;;;5027749;28;20210;-86
2021/12/29 05:41:57;;;;;;;5.10;4.80;;;8.90;99.90;;;;;;5024367;28;20489;-85
2021/12/29 05:44:25;;;;;;;4.20;3.90;;;9.10;99.90;;;;;;5040866;28;20465;-85
2021/12/29 05:46:52;;;;;;;5.47;5.07;;;9.90;99.90;;;;;;5047762;28;20168;-86
2021/12/29 05:49:17;;;;;;;4.80;4.40;;;8.90;99.90;;;;;;5009130;28;20185;-86
2021/12/29 05:51:45;;;;;;;4.27;4.07;;;8.90;99.90;;;;;;5010558;28;20485;-86
2021/12/29 05:54:12;;;;;;;4.43;4.23;;;9.00;99.90;;;;;;4998906;28;20193;-87
2021/12/29 05:56:40;;;;;;;5.00;4.63;;;8.90;99.90;;;;;;5024672;28;20438;-87
2021/12/29 05:59:07;;;;;;;4.30;4.05;;;8.80;99.90;;;;;;5017999;28;20187;-84
2021/12/29 06:01:36;;;;;;;4.45;4.20;;;8.70;99.90;;;;;;5016532;28;20177;-86
2021/12/29 06:04:05;;;;;;;5.00;4.70;;;9.00;99.90;;;;;;4988957;28;20204;-85
2021/12/29 06:06:34;;;;;;;5.47;5.05;;;8.90;99.90;;;;;;5015547;28;20415;-85
2021/12/29 06:09:10;;;;;;;5.22;4.47;;;8.90;99.90;;;;;;5021715;28;20280;-84
2021/12/29 06:11:37;;;;;;;5.23;4.40;;;10.20;99.90;;;;;;4978103;28;20192;-85
2021/12/29 06:14:05;;;;;;;5.15;4.65;;;10.40;99.90;;;;;;5009678;28;20815;-84
2021/12/29 06:16:30;;;;;;;5.50;5.20;;;9.30;99.90;;;;;;5010492;28;20180;-84
2021/12/29 06:18:57;;;;;;;3.97;3.77;;;10.50;99.90;;;;;;5010499;28;20223;-84
2021/12/29 06:21:23;;;;;;;6.45;5.85;;;9.30;99.90;;;;;;5011704;28;20180;-85
2021/12/29 06:23:49;;;;;;;12.50;8.87;;;9.10;99.90;;;;;;4994752;28;20274;-85
2021/12/29 06:26:15;;;;;;;12.13;10.70;;;8.90;99.90;;;;;;4998362;28;20492;-85
2021/12/29 06:28:43;;;;;;;19.27;14.10;;;9.00;99.90;;;;;;4990620;28;20220;-86
2021/12/29 06:31:09;;;;;;;24.13;17.20;;;9.10;99.90;;;;;;5011116;28;20209;-86
2021/12/29 06:33:38;;;;;;;24.60;17.40;;;8.90;99.90;;;;;;5015033;28;20236;-86
2021/12/29 06:36:07;;;;;;;25.10;17.90;;;9.80;99.90;;;;;;5012339;28;20192;-85
2021/12/29 06:38:43;;;;;;;28.33;20.43;;;9.10;99.90;;;;;;5013213;28;20466;-86
2021/12/29 06:41:09;;;;;;;27.52;19.70;;;9.10;99.90;;;;;;5012451;28;20439;-85
2021/12/29 06:43:36;;;;;;;28.95;19.83;;;8.70;99.90;;;;;;5017751;28;20248;-86
2021/12/29 06:46:05;;;;;;;36.13;24.37;;;10.30;99.90;;;;;;5012518;28;20213;-86
2021/12/29 06:48:32;;;;;;;35.53;20.30;;;8.90;99.90;;;;;;5011306;28;20434;-88
2021/12/29 06:50:58;;;;;;;29.80;18.90;;;9.00;99.90;;;;;;5016121;28;20439;-85
2021/12/29 06:53:25;;;;;;;35.53;20.53;;;9.10;99.90;;;;;;4998388;28;20482;-85
2021/12/29 06:55:52;;;;;;;31.00;21.10;;;9.00;99.90;;;;;;5015611;28;20169;-85
2021/12/29 06:58:18;;;;;;;25.67;17.87;;;9.20;99.90;;;;;;5012327;28;20198;-85
2021/12/29 07:00:43;;;;;;;29.30;20.17;;;8.90;99.90;;;;;;4661943;28;9999649;-85
2021/12/29 07:03:10;;;;;;;32.47;19.17;;;8.80;99.90;;;;;;4998209;28;20185;-85
2021/12/29 07:05:36;;;;;;;31.58;20.52;;;9.10;99.90;;;;;;5004145;28;20212;-86
2021/12/29 07:08:05;;;;;;;35.43;21.30;;;9.10;99.90;;;;;;4991026;28;20279;-83
2021/12/29 07:10:33;;;;;;;29.30;17.55;;;10.60;99.90;;;;;;4996501;28;20258;-85
2021/12/29 07:13:10;;;;;;;24.98;18.38;;;9.20;99.90;;;;;;5004230;28;20193;-82
2021/12/29 07:15:43;;;;;;;31.08;19.30;;;10.60;99.90;;;;;;4994528;28;20208;-85
2021/12/29 07:18:09;;;;;;;37.10;21.52;;;9.10;99.90;;;;;;4996117;28;20197;-86
2021/12/29 07:20:38;;;;;;;26.97;18.33;;;9.10;99.90;;;;;;4999179;28;20240;-87
2021/12/29 07:23:12;;;;;;;31.67;21.17;;;11.00;99.90;;;;;;5009842;28;20264;-86
2021/12/29 07:25:37;;;;;;;28.37;21.30;;;9.30;99.90;;;;;;4991490;28;20217;-88
2021/12/29 07:28:04;;;;;;;27.40;20.92;;;8.90;99.90;;;;;;5012652;28;20439;-87
2021/12/29 07:30:33;;;;;;;34.20;20.97;;;8.90;99.90;;;;;;5018866;28;20185;-86
2021/12/29 07:33:00;;;;;;;28.10;20.40;;;9.00;99.90;;;;;;4997072;28;20806;-86
2021/12/29 07:35:32;;;;;;;25.97;18.50;;;9.00;99.90;;;;;;4994549;28;20209;-86
2021/12/29 07:37:58;;;;;;;28.42;18.85;;;9.10;99.90;;;;;;5002361;28;20633;-86
2021/12/29 07:40:24;;;;;;;25.67;18.07;;;8.90;99.90;;;;;;4992900;28;20203;-86
2021/12/29 07:42:54;;;;;;;35.15;21.25;;;9.20;99.90;;;;;;5005512;28;20176;-86
2021/12/29 07:45:25;;;;;;;29.63;20.00;;;9.00;99.90;;;;;;5001557;28;20212;-87
2021/12/29 07:47:51;;;;;;;24.83;19.05;;;9.00;99.90;;;;;;4978279;28;20202;-86
2021/12/29 07:50:20;;;;;;;27.77;20.43;;;9.30;99.90;;;;;;4967074;28;20186;-87
2021/12/29 07:52:48;;;;;;;28.27;19.03;;;9.10;99.90;;;;;;4986007;28;20431;-84
2021/12/29 07:55:19;;;;;;;33.50;18.30;;;9.20;99.90;;;;;;5003500;28;20474;-86
2021/12/29 07:57:46;;;;;;;33.05;21.42;;;8.70;99.90;;;;;;5008226;28;20444;-85
2021/12/29 08:00:14;;;;;;;39.25;22.25;;;8.80;99.90;;;;;;4982411;28;20662;-85
2021/12/29 08:02:43;;;;;;;32.83;20.40;;;9.20;99.90;;;;;;4981144;28;20178;-87
2021/12/29 08:05:10;;;;;;;29.15;17.70;;;9.10;99.90;;;;;;4960960;28;20473;-86
2021/12/29 08:07:40;;;;;;;33.43;21.30;;;9.10;99.90;;;;;;4962301;28;20272;-85
2021/12/29 08:10:10;;;;;;;29.20;20.20;;;9.30;99.90;;;;;;4979166;28;20425;-85
2021/12/29 08:12:38;;;;;;;26.27;19.98;;;9.20;99.90;;;;;;4983155;28;20170;-85
2021/12/29 08:15:05;;;;;;;25.63;18.38;;;10.70;99.90;;;;;;5012459;28;20228;-83
2021/12/29 08:17:33;;;;;;;30.25;19.98;;;9.20;99.90;;;;;;4997376;28;20181;-85
2021/12/29 08:20:05;;;;;;;26.92;19.65;;;9.10;99.90;;;;;;5014034;28;20188;-86
2021/12/29 08:22:33;;;;;;;29.75;21.20;;;9.60;99.90;;;;;;4997518;28;20176;-87
2021/12/29 08:24:59;;;;;;;28.30;18.47;;;10.80;99.90;;;;;;5012853;28;20304;-84
2021/12/29 08:27:26;;;;;;;29.83;19.00;;;9.20;99.90;;;;;;4997286;28;20451;-86
2021/12/29 08:29:52;;;;;;;32.53;20.90;;;9.10;99.90;;;;;;5015033;28;20237;-86
2021/12/29 08:32:20;;;;;;;29.23;18.63;;;9.70;99.90;;;;;;4998260;28;20218;-85
2021/12/29 08:34:46;;;;;;;28.23;19.73;;;9.10;99.90;;;;;;4997615;28;20181;-86
2021/12/29 08:37:12;;;;;;;30.73;19.90;;;9.80;99.90;;;;;;5002256;28;20676;-86
2021/12/29 08:39:39;;;;;;;28.40;19.20;;;10.90;99.90;;;;;;4630302;28;10000355;-86
2021/12/29 08:42:12;;;;;;;25.05;19.30;;;9.00;99.90;;;;;;5001434;28;20173;-86
2021/12/29 08:44:42;;;;;;;25.58;17.90;;;9.20;99.90;;;;;;4994794;28;20238;-86
2021/12/29 08:47:09;;;;;;;31.10;20.87;;;9.20;99.90;;;;;;4996192;28;20185;-86
2021/12/29 08:49:37;;;;;;;29.80;19.73;;;9.10;99.90;;;;;;5015536;28;20439;-85
2021/12/29 08:52:04;;;;;;;20.63;16.85;;;9.00;99.90;;;;;;5007402;28;20224;-84
2021/12/29 08:54:31;;;;;;;27.52;19.83;;;9.30;99.90;;;;;;5013203;28;20188;-86
2021/12/29 08:56:57;;;;;;;31.50;15.55;;;9.30;99.90;;;;;;5013059;28;20231;-86
2021/12/29 08:59:22;;;;;;;31.63;20.60;;;9.20;99.90;;;;;;4995341;28;20305;-86
2021/12/29 09:01:51;;;;;;;23.52;16.05;;;9.30;99.90;;;;;;5015644;28;20259;-84
2021/12/29 09:04:20;;;;;;;26.23;16.48;;;9.40;99.90;;;;;;5015116;28;20708;-87
2021/12/29 09:06:46;;;;;;;18.42;16.13;;;10.20;99.90;;;;;;4996305;28;20185;-86
2021/12/29 09:09:12;;;;;;;21.97;16.80;;;9.50;99.90;;;;;;4991605;28;20199;-85
2021/12/29 09:11:40;;;;;;;21.77;15.73;;;9.30;99.90;;;;;;5011044;28;20548;-86
2021/12/29 09:14:08;;;;;;;24.87;16.43;;;9.20;99.90;;;;;;5014545;28;20481;-86
2021/12/29 09:16:35;;;;;;;23.88;13.20;;;9.40;99.90;;;;;;5018657;28;20415;-85
2021/12/29 09:19:01;;;;;;;19.43;14.07;;;9.60;99.90;;;;;;4999263;28;20224;-87
2021/12/29 09:21:28;;;;;;;18.33;14.63;;;9.30;99.90;;;;;;5015534;28;20486;-87
2021/12/29 09:23:53;;;;;;;20.03;14.43;;;9.40;99.90;;;;;;4993711;28;20180;-86
2021/12/29 09:26:20;;;;;;;13.50;10.27;;;9.80;99.90;;;;;;5004278;28;20440;-86
2021/12/29 09:28:49;;;;;;;15.25;13.30;;;10.70;99.90;;;;;;4999345;28;20178;-85
2021/12/29 09:31:16;;;;;;;16.77;13.90;;;11.20;99.90;;;;;;5004541;28;20187;-87
2021/12/29 09:33:43;;;;;;;13.80;11.38;;;9.50;99.90;;;;;;5001354;28;20689;-86
2021/12/29 09:36:09;;;;;;;21.37;13.07;;;9.40;99.90;;;;;;5016207;28;20435;-86
2021/12/29 09:38:38;;;;;;;18.23;12.87;;;11.30;99.90;;;;;;5014090;28;20419;-86
2021/12/29 09:41:06;;;;;;;15.80;12.07;;;9.40;99.90;;;;;;5019526;28;20439;-86
2021/12/29 09:43:32;;;;;;;13.73;9.95;;;9.50;99.90;;;;;;5013957;28;20208;-86
2021/12/29 09:46:00;;;;;;;12.52;11.20;;;9.90;99.90;;;;;;5020726;28;20256;-86
2021/12/29 09:48:26;;;;;;;12.68;11.48;;;9.40;99.90;;;;;;4989038;28;20188;-86
2021/12/29 09:50:54;;;;;;;12.20;11.00;;;9.30;99.90;;;;;;5016775;28;20259;-85
2021/12/29 09:53:21;;;;;;;11.55;10.48;;;9.40;99.90;;;;;;5006923;28;20207;-86
2021/12/29 09:55:58;;;;;;;14.20;10.35;;;9.50;99.90;;;;;;5034758;28;20187;-86
2021/12/29 09:58:31;;;;;;;12.53;11.20;;;10.90;99.90;;;;;;4983551;28;20244;-87
2021/12/29 10:01:02;;;;;;;15.37;10.30;;;11.20;99.90;;;;;;5005144;28;20466;-87
2021/12/29 10:03:33;;;;;;;10.18;9.15;;;9.70;99.90;;;;;;4983848;28;20435;-87
2021/12/29 10:06:08;;;;;;;14.00;10.30;;;11.40;99.90;;;;;;4996300;28;20439;-86
2021/12/29 10:08:38;;;;;;;12.37;11.03;;;9.80;99.90;;;;;;4645922;28;10000157;-86
2021/12/29 10:11:12;;;;;;;9.67;8.80;;;9.80;99.90;;;;;;5018952;28;20267;-86
2021/12/29 10:13:45;;;;;;;12.13;9.65;;;9.90;99.90;;;;;;5017526;28;20467;-88
2021/12/29 10:16:28;;;;;;;10.43;9.18;;;9.90;99.90;;;;;;4985934;28;20189;-87
2021/12/29 10:19:08;;;;;;;9.85;8.90;;;9.80;99.90;;;;;;4987796;28;20681;-87
2021/12/29 10:21:36;;;;;;;11.27;9.45;;;9.80;99.90;;;;;;5010234;28;20235;-88
2021/12/29 10:24:03;;;;;;;8.80;8.00;;;9.90;99.90;;;;;;4999246;28;20191;-86
2021/12/29 10:26:32;;;;;;;9.40;8.70;;;10.00;99.90;;;;;;4984921;28;20482;-87
2021/12/29 10:29:07;;;;;;;14.03;8.97;;;10.10;99.90;;;;;;5006525;28;20438;-88
2021/12/29 10:31:40;;;;;;;8.87;7.97;;;10.10;99.90;;;;;;5007923;28;20427;-87
2021/12/29 10:34:15;;;;;;;9.67;8.97;;;11.50;99.90;;;;;;4990314;28;20513;-85
2021/12/29 10:36:50;;;;;;;9.70;8.87;;;10.10;99.90;;;;;;4998893;28;20779;-88
2021/12/29 10:39:24;;;;;;;11.30;10.20;;;11.30;99.90;;;;;;4994269;28;20742;-86
2021/12/29 10:42:17;;;;;;;9.17;8.10;;;9.80;99.90;;;;;;5000722;28;20440;-88
2021/12/29 10:44:51;;;;;;;11.10;9.37;;;10.00;99.90;;;;;;4994072;28;20807;-89
2021/12/29 10:47:42;;;;;;;10.20;9.20;;;10.20;99.90;;;;;;4983328;28;20443;-87
2021/12/29 10:50:12;;;;;;;9.53;7.80;;;10.20;99.90;;;;;;4993252;28;20469;-89
2021/12/29 10:52:41;;;;;;;8.93;8.17;;;10.30;99.90;;;;;;4989682;28;20447;-88
2021/12/29 10:55:31;;;;;;;8.57;7.65;;;13.00;99.90;;;;;;4992167;28;20435;-86
2021/12/29 10:58:04;;;;;;;9.00;8.10;;;10.80;99.90;;;;;;5011148;28;20184;-87
2021/12/29 11:00:37;;;;;;;8.23;7.63;;;10.90;99.90;;;;;;4997759;28;20443;-87
2021/12/29 11:03:22;;;;;;;7.27;6.70;;;11.00;99.90;;;;;;4998535;28;20193;-87
2021/12/29 11:05:58;;;;;;;8.27;7.50;;;10.90;99.90;;;;;;5014402;28;20482;-86
2021/12/29 11:08:26;;;;;;;8.27;6.63;;;10.50;99.90;;;;;;5010273;28;20453;-87
2021/12/29 11:10:56;;;;;;;12.63;8.23;;;11.60;99.90;;;;;;5014713;28;20445;-86
2021/12/29 11:13:28;;;;;;;8.50;7.60;;;12.80;99.90;;;;;;4995593;28;20456;-87
2021/12/29 11:15:55;;;;;;;9.43;8.20;;;10.90;99.90;;;;;;5014508;28;20454;-87
2021/12/29 11:18:21;;;;;;;8.63;7.93;;;10.70;99.90;;;;;;4999586;28;20446;-88
2021/12/29 11:20:55;;;;;;;9.00;7.93;;;10.40;99.90;;;;;;5013326;28;20430;-87
2021/12/29 11:23:22;;;;;;;9.90;8.13;;;12.80;99.90;;;;;;4995703;28;20415;-83
2021/12/29 11:25:50;;;;;;;9.80;7.80;;;12.40;99.90;;;;;;5014951;28;20475;-86
2021/12/29 11:28:30;;;;;;;8.13;7.43;;;11.10;99.90;;;;;;5004562;28;20447;-86
2021/12/29 11:31:03;;;;;;;9.40;8.70;;;11.10;99.90;;;;;;4981746;28;20439;-86
2021/12/29 11:33:34;;;;;;;9.80;8.87;;;11.00;99.90;;;;;;4999698;28;20594;-85
2021/12/29 11:36:03;;;;;;;8.83;8.13;;;10.90;99.90;;;;;;5010642;28;20430;-85
2021/12/29 11:38:29;;;;;;;8.60;7.80;;;12.20;99.90;;;;;;4999774;28;20431;-85
2021/12/29 11:40:59;;;;;;;9.00;8.10;;;11.80;99.90;;;;;;5007533;28;20443;-89
2021/12/29 11:43:25;;;;;;;8.27;7.57;;;11.90;99.90;;;;;;5003771;28;20489;-87
2021/12/29 11:45:55;;;;;;;10.20;9.03;;;13.70;99.90;;;;;;4995369;28;20480;-86
2021/12/29 11:48:23;;;;;;;7.93;7.23;;;13.10;99.90;;;;;;5001903;28;20440;-86
2021/12/29 11:51:00;;;;;;;9.07;8.37;;;11.70;99.90;;;;;;4988950;28;20463;-86
2021/12/29 11:53:51;;;;;;;8.70;7.90;;;12.50;99.90;;;;;;4983386;28;21004;-86
2021/12/29 11:56:19;;;;;;;5.97;5.70;;;12.10;99.90;;;;;;4986125;28;20439;-86
2021/12/29 11:58:46;;;;;;;5.53;5.03;;;11.80;99.90;;;;;;4970071;28;20462;-85
2021/12/29 12:01:29;;;;;;;6.10;5.70;;;13.60;99.90;;;;;;4999681;28;20723;-85
2021/12/29 12:03:58;;;;;;;5.87;5.47;;;11.70;99.90;;;;;;5005556;28;20444;-85
2021/12/29 12:06:35;;;;;;;6.50;5.90;;;11.70;99.90;;;;;;5003024;28;20788;-87
2021/12/29 12:09:18;;;;;;;6.10;5.53;;;11.50;99.90;;;;;;5002816;28;20897;-84
2021/12/29 12:11:49;;;;;;;6.47;5.77;;;11.10;99.90;;;;;;4983274;28;20452;-88
2021/12/29 12:14:18;;;;;;;6.40;5.87;;;11.90;99.90;;;;;;5006812;28;20456;-87
2021/12/29 12:16:51;;;;;;;6.78;5.72;;;11.30;99.90;;;;;;5017634;28;20449;-86
2021/12/29 12:19:20;;;;;;;5.37;5.13;;;11.10;99.90;;;;;;4992401;28;20177;-85
2021/12/29 12:21:49;;;;;;;5.60;5.20;;;11.00;99.90;;;;;;5028072;28;20431;-86
2021/12/29 12:24:23;;;;;;;8.03;6.73;;;12.10;99.90;;;;;;5020499;28;20995;-86
2021/12/29 12:26:52;;;;;;;6.70;6.20;;;11.40;99.90;;;;;;5015832;28;20415;-87
2021/12/29 12:29:18;;;;;;;6.73;6.03;;;11.20;99.90;;;;;;4999943;28;20463;-88
2021/12/29 12:32:06;;;;;;;8.80;6.47;;;11.00;99.90;;;;;;5027617;28;20982;-88
2021/12/29 12:34:47;;;;;;;5.60;5.10;;;11.10;99.90;;;;;;5020089;28;20470;-88
2021/12/29 12:37:18;;;;;;;8.60;5.23;;;11.80;99.90;;;;;;4999466;28;20416;-87
2021/12/29 12:39:56;;;;;;;5.67;5.20;;;10.60;99.90;;;;;;4980799;28;20528;-88
2021/12/29 12:42:22;;;;;;;7.60;6.20;;;11.10;99.90;;;;;;4973172;28;20801;-86
2021/12/29 12:44:57;;;;;;;6.10;5.60;;;11.20;99.90;;;;;;5015231;28;20561;-86
2021/12/29 12:47:28;;;;;;;10.00;7.27;;;10.50;99.90;;;;;;5008721;28;20197;-87
2021/12/29 12:49:58;;;;;;;6.47;5.97;;;11.80;99.90;;;;;;5015049;28;20447;-88
2021/12/29 12:52:43;;;;;;;6.47;5.87;;;10.70;99.90;;;;;;5014515;28;20431;-88
2021/12/29 12:55:17;;;;;;;9.00;6.60;;;10.70;99.90;;;;;;5001728;28;20431;-86
2021/12/29 12:57:45;;;;;;;13.80;12.30;;;10.70;99.90;;;;;;5012897;28;20436;-84
2021/12/29 13:00:21;;;;;;;7.33;6.73;;;11.10;99.90;;;;;;5004287;28;20562;-88
2021/12/29 13:02:53;;;;;;;7.40;6.60;;;10.70;99.90;;;;;;5003065;28;20465;-87